SKW4075 KSMF-KSEA
Flight info
| Callsign | SKW4075 |
|---|---|
| Flight time | N/A |
| Altitude | 36000 |
| Route | RBL LMT HAWKZ8 |
| Aircraft | E75L/M-SDE3GILORVW/S |
Departure
| Time | 2026-04-30 22:49 |
|---|---|
| Airport | Sacramento International Airport (KSMF) |
Arrival
| Time | N/A |
|---|---|
| Airport | Seattle–Tacoma International Airport (KSEA) |
| Time | Latitude | Longitude | Altitude | Speed | Heading |
|---|---|---|---|---|---|
| 2026-04-30 22:24 | 38.69402 | -121.58813 | 28 ft | 0 kts | 122° |
| 2026-04-30 22:41 | 38.69409 | -121.58827 | 28 ft | 2 kts | 122° |
| 2026-04-30 22:42 | 38.69419 | -121.58888 | 28 ft | 2 kts | 37° |
| 2026-04-30 22:43 | 38.69402 | -121.58892 | 28 ft | 0 kts | 350° |
| 2026-04-30 22:45 | 38.69410 | -121.58894 | 28 ft | 3 kts | 351° |
| 2026-04-30 22:45 | 38.69498 | -121.58919 | 28 ft | 9 kts | 360° |
| 2026-04-30 22:46 | 38.69624 | -121.58863 | 28 ft | 10 kts | 110° |
| 2026-04-30 22:47 | 38.69615 | -121.58382 | 27 ft | 16 kts | 89° |
| 2026-04-30 22:47 | 38.69684 | -121.58258 | 26 ft | 9 kts | 73° |
| 2026-04-30 22:48 | 38.69686 | -121.58089 | 26 ft | 10 kts | 90° |
| 2026-04-30 22:49 | 38.68553 | -121.58051 | 25 ft | 130 kts | 184° |
| 2026-04-30 22:49 | 38.65117 | -121.57956 | 696 ft | 194 kts | 176° |
| 2026-04-30 22:50 | 38.60584 | -121.61902 | 2607 ft | 238 kts | 261° |
| 2026-04-30 22:51 | 38.61626 | -121.65725 | 3937 ft | 245 kts | 324° |
| 2026-04-30 22:51 | 38.64941 | -121.67298 | 4975 ft | 269 kts | 347° |
| 2026-04-30 22:52 | 38.66755 | -121.67877 | 5659 ft | 273 kts | 345° |
| 2026-04-30 22:52 | 38.70433 | -121.69201 | 7135 ft | 276 kts | 344° |
| 2026-04-30 22:53 | 38.74116 | -121.70591 | 8518 ft | 280 kts | 344° |
| 2026-04-30 22:53 | 38.77887 | -121.72031 | 9866 ft | 284 kts | 345° |
| 2026-04-30 22:53 | 38.79779 | -121.72756 | 10526 ft | 286 kts | 344° |
| 2026-04-30 22:54 | 38.83668 | -121.74248 | 11541 ft | 299 kts | 344° |
| 2026-04-30 22:55 | 38.89814 | -121.76609 | 13010 ft | 315 kts | 344° |
| 2026-04-30 22:55 | 38.94032 | -121.78233 | 14200 ft | 317 kts | 343° |
| 2026-04-30 22:56 | 38.98252 | -121.79858 | 15311 ft | 321 kts | 343° |
| 2026-04-30 22:56 | 39.04755 | -121.82368 | 16927 ft | 327 kts | 343° |
| 2026-04-30 22:57 | 39.09113 | -121.84053 | 17993 ft | 329 kts | 342° |
| 2026-04-30 22:57 | 39.13557 | -121.85774 | 19005 ft | 334 kts | 342° |
| 2026-04-30 22:58 | 39.18013 | -121.87501 | 20012 ft | 337 kts | 342° |
| 2026-04-30 22:59 | 39.24783 | -121.90129 | 21439 ft | 342 kts | 342° |
| 2026-04-30 22:59 | 39.31675 | -121.92809 | 22799 ft | 347 kts | 342° |